To NAV CANADA Home Page Login to a new session Search on AWWS site Feedback and Comments Disclaimer Vers la page française équivalente Tips FAQ What's new on the site To the Forecasts and Observations / NOTAM section To "File a Flight Plan" website Publications and other links Update of the User's profile FIC Telephone Numbers My Weather Data Folder Route Weather Data Regional Weather Data Local Weather Data To the Forecasts and Observations / NOTAM section
Request Generated 10/18/2017 at 03:45:45 UTC . Weather information available at that time is displayed.

METAR/TAF

HALIFAX/SHEARWATER/NS    

SPECI CYAW 180214Z 29005KT 15SM SKC 06/M00 A3018 RMK DA-1142FT LAST OBS/NEXT 180900 UTC SLP220=
METAR CYAW 180200Z 28004KT 15SM SKC 06/M01 A3018 RMK DA-1143FT SLP220=
METAR CYAW 180100Z 30007KT 15SM SKC 06/M01 A3018 RMK DA-1096FT SLP221=
METAR CYAW 180000Z 29005KT 15SM SKC 07/M02 A3017 RMK DA-1052FT SLP219=

TAF AMD CYAW 180216Z 1800/1806 FCST CNCLD DUE END OF FLYING PROGRAM
RMK NXT FCST WILL BE ISSUED AT 191015Z=
Your time UTC time
Weather data provided by Environment Canada and NAV CANADA